GOGG

Ziguinchor Airport

Ziguinchor, Senegal
METAR GOGG 212100Z 26004KT 9999 FEW016 27/26 Q1011 RETS
Observed Flight Rules
Jul-21 @ 21:00 UTC (2 hours ago) Visual Flight Rules
Wind Visibility Clouds
260° at 4 knots 10,000+ meters
  • Few at 1,600' AGL
Temperatures Readings
Current 27°C / 81°F
Dewpoint 26°C / 79°F
Humidity 94%
Altimeter 29.85" Hg
Pressure 1011 hPa
Elevation 23
METAR GOGG 212100Z 26004KT 9999 FEW016 27/26 Q1011 RETS
Observed Flight Rules
Jul-21 @ 21:00 UTC
(2 hours ago)
VFR
Wind Visibility
260° at 4 knots 10,000+ meters
Clouds
  • Few at 1,600' AGL
Temperature Dewpoint
27°C / 81°F 26°C / 79°F
Humidity Altimeter Pressure
94% 29.85" Hg 1011 hPa